Time;durP1;ratioP1;P1;durP2;ratioP2;P2;SDS_P1;SDS_P2;PMS_P1;PMS_P2;Temp;Humidity;BMP_temperature;BMP_pressure;BME280_temperature;BME280_humidity;BME280_pressure;Samples;Min_cycle;Max_cycle;Signal;HPM_P1;HPM_P2
2021/12/16 00:09:10;;;;;;;13.07;8.20;;;0.20;99.90;;;;;;5042230;28;20078;-77
2021/12/16 00:28:58;;;;;;;13.73;8.53;;;0.20;99.90;;;;;;5052129;28;20448;-77
2021/12/16 00:31:18;;;;;;;13.27;8.38;;;0.20;99.90;;;;;;5052798;28;20450;-77
2021/12/16 00:33:47;;;;;;;16.95;7.60;;;0.20;99.90;;;;;;5055510;28;20040;-77
2021/12/16 00:36:13;;;;;;;11.60;7.30;;;0.20;99.90;;;;;;5045391;28;20028;-77
2021/12/16 00:38:42;;;;;;;13.10;7.57;;;0.20;99.90;;;;;;5054305;28;20028;-77
2021/12/16 00:41:08;;;;;;;13.30;7.13;;;0.20;99.90;;;;;;5056071;28;20044;-77
2021/12/16 00:54:11;;;;;;;12.57;7.47;;;0.20;99.90;;;;;;5055099;28;20099;-77
2021/12/16 00:56:41;;;;;;;12.35;8.27;;;0.20;99.90;;;;;;5054867;28;20048;-77
2021/12/16 00:59:10;;;;;;;13.07;7.68;;;0.20;99.90;;;;;;5054185;28;20025;-77
2021/12/16 01:02:05;;;;;;;9.75;5.68;;;0.20;99.90;;;;;;5054823;28;20087;-76
2021/12/16 01:55:22;;;;;;;10.55;6.20;;;0.20;99.90;;;;;;5054443;28;20114;-77
2021/12/16 01:57:56;;;;;;;8.70;5.57;;;0.30;99.90;;;;;;5054219;28;20021;-78
2021/12/16 02:00:52;;;;;;;10.27;5.78;;;0.20;99.90;;;;;;5054086;28;20076;-77
2021/12/16 02:03:25;;;;;;;7.45;5.18;;;0.30;99.90;;;;;;5054696;28;20032;-78
2021/12/16 02:10:57;;;;;;;9.00;5.30;;;0.30;99.90;;;;;;5053716;28;20067;-77
2021/12/16 02:32:55;;;;;;;11.18;5.40;;;0.20;99.90;;;;;;5053086;28;20202;-77
2021/12/16 02:37:51;;;;;;;8.20;5.63;;;0.20;99.90;;;;;;5048205;28;20033;-78
2021/12/16 02:40:18;;;;;;;8.30;4.85;;;0.20;99.90;;;;;;5052814;28;20474;-77
2021/12/16 02:42:58;;;;;;;6.40;4.35;;;0.20;99.90;;;;;;5046449;28;20049;-77
2021/12/16 02:50:58;;;;;;;8.73;5.75;;;0.30;99.90;;;;;;5053059;28;20422;-75
2021/12/16 02:53:24;;;;;;;4.90;3.80;;;0.30;99.90;;;;;;5052739;28;20151;-76
2021/12/16 02:55:50;;;;;;;6.60;4.45;;;0.30;99.90;;;;;;5052830;28;20103;-76
2021/12/16 02:58:16;;;;;;;5.85;4.20;;;0.30;99.90;;;;;;5052554;28;20029;-77
2021/12/16 03:00:47;;;;;;;5.88;3.78;;;0.30;99.90;;;;;;5052334;28;20798;-77
2021/12/16 03:03:13;;;;;;;5.38;3.95;;;0.30;99.90;;;;;;5052624;28;20025;-76
2021/12/16 03:05:39;;;;;;;5.35;3.20;;;0.30;99.90;;;;;;5051966;28;20094;-76
2021/12/16 03:08:06;;;;;;;5.82;4.22;;;0.30;99.90;;;;;;5039636;28;20021;-76
2021/12/16 03:13:33;;;;;;;7.53;5.45;;;0.30;99.90;;;;;;5045377;28;20114;-77
2021/12/16 03:19:05;;;;;;;6.47;4.38;;;0.30;99.90;;;;;;5052147;28;20028;-79
2021/12/16 03:21:37;;;;;;;;;;;0.30;99.90;;;;;;5053146;28;20025;-77
2021/12/16 03:37:12;;;;;;;6.03;3.75;;;0.30;99.90;;;;;;5038836;28;20017;-78
2021/12/16 03:39:40;;;;;;;7.30;4.00;;;0.30;99.90;;;;;;5036781;28;20030;-76
2021/12/16 03:42:07;;;;;;;7.25;4.53;;;0.30;99.90;;;;;;5047219;28;20052;-75
2021/12/16 03:44:49;;;;;;;5.38;4.30;;;0.40;99.90;;;;;;5065243;28;20029;-76
2021/12/16 03:47:20;;;;;;;6.07;3.70;;;0.40;99.90;;;;;;5053498;28;20037;-77
2021/12/16 03:49:46;;;;;;;6.03;4.00;;;0.40;99.90;;;;;;5051105;28;20486;-77
2021/12/16 03:52:12;;;;;;;7.18;4.03;;;0.30;99.90;;;;;;5051566;28;20059;-77
2021/12/16 03:54:49;;;;;;;7.18;4.95;;;0.40;99.90;;;;;;5052312;28;20033;-76
2021/12/16 03:57:19;;;;;;;5.38;4.05;;;0.30;99.90;;;;;;5052596;28;20090;-77
2021/12/16 03:59:45;;;;;;;9.25;4.72;;;0.40;99.90;;;;;;5052824;28;20451;-77
2021/12/16 04:02:15;;;;;;;5.90;4.07;;;0.40;99.90;;;;;;5051378;28;20316;-77
2021/12/16 04:04:43;;;;;;;6.63;4.20;;;0.40;99.90;;;;;;5051990;28;20029;-76
2021/12/16 04:07:09;;;;;;;10.48;7.20;;;0.40;99.90;;;;;;5055025;28;20075;-76
2021/12/16 04:09:35;;;;;;;6.25;3.97;;;0.40;99.90;;;;;;5056097;28;20063;-78
2021/12/16 04:12:08;;;;;;;7.95;4.15;;;0.40;99.90;;;;;;5054716;28;20158;-77
2021/12/16 04:14:36;;;;;;;7.03;4.43;;;0.40;99.90;;;;;;5055754;28;20017;-80
2021/12/16 04:17:03;;;;;;;6.82;3.97;;;0.40;99.90;;;;;;5055673;28;20026;-77
2021/12/16 04:19:31;;;;;;;6.22;3.90;;;0.40;99.90;;;;;;5055464;28;20036;-78
2021/12/16 04:22:09;;;;;;;5.55;3.67;;;0.40;99.90;;;;;;5055593;28;20044;-77
2021/12/16 04:24:36;;;;;;;6.18;3.78;;;0.40;99.90;;;;;;5055547;28;20082;-76
2021/12/16 04:27:11;;;;;;;5.35;3.28;;;0.40;99.90;;;;;;5055557;28;20377;-79
2021/12/16 04:29:38;;;;;;;5.28;3.58;;;0.40;99.90;;;;;;5055622;28;20025;-78
2021/12/16 04:32:04;;;;;;;7.18;3.42;;;0.40;99.90;;;;;;5055782;28;20060;-78
2021/12/16 04:34:30;;;;;;;5.60;3.70;;;0.40;99.90;;;;;;5050702;28;20029;-78
2021/12/16 04:36:57;;;;;;;6.28;3.50;;;0.40;99.90;;;;;;5046043;28;20033;-77
2021/12/16 04:39:26;;;;;;;6.90;4.00;;;0.40;99.90;;;;;;5046644;28;20026;-78
2021/12/16 04:41:54;;;;;;;6.82;3.78;;;0.40;99.90;;;;;;5055603;28;20517;-79
2021/12/16 04:44:22;;;;;;;4.60;3.30;;;0.40;99.90;;;;;;5042290;28;20021;-77
2021/12/16 04:46:48;;;;;;;5.10;3.78;;;0.40;99.90;;;;;;5055239;28;20036;-77
2021/12/16 04:49:16;;;;;;;5.88;3.22;;;0.40;99.90;;;;;;5055053;28;20092;-77
2021/12/16 04:51:49;;;;;;;5.13;3.83;;;0.40;99.90;;;;;;5055041;28;20028;-76
2021/12/16 04:54:17;;;;;;;5.72;4.00;;;0.40;99.90;;;;;;5054969;28;20025;-78
2021/12/16 04:56:44;;;;;;;3.83;2.83;;;0.40;99.90;;;;;;5053598;28;20402;-77
2021/12/16 04:59:13;;;;;;;5.15;3.55;;;0.40;99.90;;;;;;5054930;28;20096;-77
2021/12/16 05:01:43;;;;;;;8.60;3.85;;;0.40;99.90;;;;;;5054804;28;20051;-78
2021/12/16 05:04:09;;;;;;;5.97;3.55;;;0.50;99.90;;;;;;5053422;28;20052;-77
2021/12/16 05:06:36;;;;;;;5.53;3.00;;;0.40;99.90;;;;;;5054328;28;20060;-79
2021/12/16 05:09:05;;;;;;;5.28;3.38;;;0.40;99.90;;;;;;5053991;28;20021;-77
2021/12/16 05:11:33;;;;;;;5.70;3.97;;;0.50;99.90;;;;;;5050394;28;20017;-78
2021/12/16 05:13:59;;;;;;;8.25;4.20;;;0.40;99.90;;;;;;5054941;28;20104;-78
2021/12/16 05:16:25;;;;;;;8.18;4.07;;;0.50;99.90;;;;;;5054339;28;20159;-77
2021/12/16 05:18:54;;;;;;;8.55;3.40;;;0.40;99.90;;;;;;5053351;28;20060;-79
2021/12/16 05:24:16;;;;;;;5.80;4.38;;;0.40;99.90;;;;;;5054445;28;20577;-78
2021/12/16 05:26:44;;;;;;;5.90;3.58;;;0.40;99.90;;;;;;5052539;28;20094;-77
2021/12/16 05:29:10;;;;;;;9.77;4.15;;;0.50;99.90;;;;;;5054306;28;20024;-77
2021/12/16 05:31:37;;;;;;;5.28;4.00;;;0.40;99.90;;;;;;5041906;28;20065;-76
2021/12/16 05:34:05;;;;;;;6.75;3.30;;;0.50;99.90;;;;;;5048029;28;20100;-77
2021/12/16 05:36:31;;;;;;;8.25;4.18;;;0.50;99.90;;;;;;5043753;28;20481;-76
2021/12/16 05:38:57;;;;;;;6.18;3.67;;;0.50;99.90;;;;;;5051292;28;20017;-77
2021/12/16 05:41:24;;;;;;;5.88;3.13;;;0.50;99.90;;;;;;5054323;28;20162;-78
2021/12/16 05:43:50;;;;;;;6.82;4.10;;;0.50;99.90;;;;;;5040284;28;20053;-77
2021/12/16 05:46:20;;;;;;;7.90;4.38;;;0.50;99.90;;;;;;5044389;28;20041;-78
2021/12/16 05:48:48;;;;;;;7.57;3.83;;;0.50;99.90;;;;;;5047973;28;20096;-79
2021/12/16 05:51:30;;;;;;;6.43;4.13;;;0.50;99.90;;;;;;5045348;28;20524;-77
2021/12/16 05:53:56;;;;;;;6.05;3.50;;;0.50;99.90;;;;;;5054211;28;20035;-78
2021/12/16 05:56:22;;;;;;;5.95;4.57;;;0.50;99.90;;;;;;5053605;28;20017;-79
2021/12/16 05:58:51;;;;;;;7.32;3.88;;;0.50;99.90;;;;;;5050747;28;20084;-77
2021/12/16 06:01:27;;;;;;;6.75;3.08;;;0.50;99.90;;;;;;5032346;28;20029;-78
2021/12/16 06:03:55;;;;;;;7.53;4.30;;;0.50;99.90;;;;;;5050904;28;20386;-78
2021/12/16 06:06:22;;;;;;;4.85;3.75;;;0.50;99.90;;;;;;5053264;28;20060;-77
2021/12/16 06:08:49;;;;;;;7.75;3.75;;;0.50;99.90;;;;;;5051843;28;20111;-77
2021/12/16 06:11:21;;;;;;;6.18;3.80;;;0.50;99.90;;;;;;5051085;28;20021;-77
2021/12/16 06:14:19;;;;;;;6.65;3.72;;;0.50;99.90;;;;;;5047579;28;20355;-77
2021/12/16 06:27:54;;;;;;;5.75;3.60;;;0.50;99.90;;;;;;5054098;28;20074;-78
2021/12/16 06:30:25;;;;;;;4.07;3.17;;;0.50;99.90;;;;;;5052972;28;20024;-77
2021/12/16 06:32:51;;;;;;;8.43;4.25;;;0.50;99.90;;;;;;5053382;28;20023;-78
2021/12/16 06:35:17;;;;;;;6.78;3.55;;;0.50;99.90;;;;;;5037939;28;20478;-76
2021/12/16 06:37:44;;;;;;;9.65;4.68;;;0.50;99.90;;;;;;5051735;28;20082;-78
2021/12/16 06:40:11;;;;;;;8.93;3.97;;;0.50;99.90;;;;;;5052949;28;20112;-78
2021/12/16 06:42:40;;;;;;;8.05;4.63;;;0.50;99.90;;;;;;5044757;28;20045;-77
2021/12/16 06:45:12;;;;;;;7.90;3.85;;;0.50;99.90;;;;;;5041278;28;20044;-80
2021/12/16 06:47:46;;;;;;;7.88;3.83;;;0.50;99.90;;;;;;5052690;28;20482;-78
2021/12/16 06:50:25;;;;;;;5.43;3.80;;;0.50;99.90;;;;;;5051819;28;20543;-77
2021/12/16 06:52:55;;;;;;;5.07;3.92;;;0.50;99.90;;;;;;5053161;28;20017;-77
2021/12/16 06:55:33;;;;;;;7.78;4.68;;;0.50;99.90;;;;;;5041401;28;20021;-77
2021/12/16 06:58:09;;;;;;;8.43;4.45;;;0.50;99.90;;;;;;5053614;28;20063;-78
2021/12/16 07:00:42;;;;;;;6.95;4.38;;;0.50;99.90;;;;;;5051646;28;20028;-79
2021/12/16 07:03:18;;;;;;;8.45;3.67;;;0.50;99.90;;;;;;5032314;28;20497;-79
2021/12/16 07:05:46;;;;;;;5.28;4.50;;;0.50;99.90;;;;;;5031658;28;20044;-80
2021/12/16 07:08:15;;;;;;;8.05;4.40;;;0.50;99.90;;;;;;5054274;28;20021;-78
2021/12/16 07:10:45;;;;;;;6.82;5.18;;;0.50;99.90;;;;;;5054886;28;20017;-79
2021/12/16 07:13:19;;;;;;;5.72;4.18;;;0.50;99.90;;;;;;5059629;28;20094;-78
2021/12/16 07:15:48;;;;;;;6.63;4.22;;;0.50;99.90;;;;;;5053145;28;20033;-77
2021/12/16 07:18:14;;;;;;;9.25;3.90;;;0.50;99.90;;;;;;5052392;28;20031;-79
2021/12/16 07:20:41;;;;;;;7.00;4.15;;;0.50;99.90;;;;;;5032740;28;20471;-78
2021/12/16 07:26:32;;;;;;;;;;;;;;;;;;;;;
2021/12/16 07:28:58;;;;;;;29.08;10.00;;;0.50;99.90;;;;;;5031340;28;20021;-76
2021/12/16 07:31:25;;;;;;;13.13;7.90;;;0.40;99.90;;;;;;5030842;28;20125;-77
2021/12/16 07:33:51;;;;;;;9.25;5.97;;;0.40;99.90;;;;;;5014162;28;20057;-76
2021/12/16 07:36:18;;;;;;;18.30;7.95;;;0.40;99.90;;;;;;5031336;28;20529;-78
2021/12/16 07:38:46;;;;;;;13.18;7.57;;;0.40;99.90;;;;;;5030984;28;20034;-76
2021/12/16 07:41:13;;;;;;;11.85;6.35;;;0.40;99.90;;;;;;5031944;28;20077;-76
2021/12/16 07:46:25;;;;;;;7.90;5.82;;;0.50;99.90;;;;;;5034469;28;20044;-76
2021/12/16 07:48:51;;;;;;;;;;;0.50;99.90;;;;;;5034900;28;20032;-76
2021/12/16 07:51:17;;;;;;;8.40;5.93;;;0.50;99.90;;;;;;5035543;28;19996;-77
2021/12/16 07:53:44;;;;;;;7.32;4.95;;;0.50;99.90;;;;;;5035398;28;20029;-78
2021/12/16 07:56:10;;;;;;;6.13;3.97;;;0.50;99.90;;;;;;5055091;28;20037;-77
2021/12/16 07:58:36;;;;;;;6.20;4.00;;;0.50;99.90;;;;;;5055896;28;20021;-77
2021/12/16 08:01:03;;;;;;;10.52;5.40;;;0.50;99.90;;;;;;5058251;28;20430;-77
2021/12/16 08:03:35;;;;;;;8.63;5.27;;;0.50;99.90;;;;;;5044146;28;20455;-75
2021/12/16 08:06:07;;;;;;;8.75;6.25;;;0.50;99.90;;;;;;5036351;28;20386;-76
2021/12/16 08:08:33;;;;;;;6.53;5.10;;;0.50;99.90;;;;;;5036535;28;20060;-76
2021/12/16 08:11:00;;;;;;;6.95;5.63;;;0.50;99.90;;;;;;5034774;28;20167;-76
2021/12/16 08:13:26;;;;;;;8.88;5.90;;;0.50;99.90;;;;;;5036117;28;20520;-76
2021/12/16 08:15:52;;;;;;;7.30;5.55;;;0.60;99.90;;;;;;5018406;28;20087;-77
2021/12/16 08:18:19;;;;;;;10.90;5.72;;;0.60;99.90;;;;;;5036416;28;20025;-76
2021/12/16 08:20:45;;;;;;;9.45;5.45;;;0.60;99.90;;;;;;5036083;28;20029;-78
2021/12/16 08:23:11;;;;;;;8.88;5.53;;;0.60;99.90;;;;;;5036044;28;20109;-75
2021/12/16 08:25:38;;;;;;;12.95;6.00;;;0.60;99.90;;;;;;5035939;28;20048;-76
2021/12/16 08:28:05;;;;;;;9.10;6.88;;;0.60;99.90;;;;;;5035999;28;20121;-76
2021/12/16 08:30:35;;;;;;;13.27;7.07;;;0.60;99.90;;;;;;5034591;28;20471;-76
2021/12/16 08:33:05;;;;;;;9.68;6.22;;;0.60;99.90;;;;;;5036088;28;20028;-76
2021/12/16 08:35:32;;;;;;;9.45;6.03;;;0.60;99.90;;;;;;5036159;28;20442;-76
2021/12/16 08:37:57;;;;;;;11.15;7.32;;;0.60;99.90;;;;;;5035927;28;20022;-76
2021/12/16 08:40:24;;;;;;;11.77;6.55;;;0.60;99.90;;;;;;5036109;28;20040;-75
2021/12/16 08:42:51;;;;;;;8.07;5.75;;;0.70;99.90;;;;;;5036013;28;20053;-76
2021/12/16 08:45:25;;;;;;;8.63;5.37;;;0.70;99.90;;;;;;5035728;28;20116;-77
2021/12/16 08:47:52;;;;;;;11.55;6.78;;;0.60;99.90;;;;;;5035768;28;20076;-77
2021/12/16 08:50:21;;;;;;;6.88;5.03;;;0.60;99.90;;;;;;5034840;28;20200;-77
2021/12/16 08:52:47;;;;;;;9.98;6.00;;;0.70;99.90;;;;;;5035125;28;20433;-77
2021/12/16 08:55:14;;;;;;;8.88;5.32;;;0.70;99.90;;;;;;5048556;28;20049;-76
2021/12/16 08:57:41;;;;;;;9.32;5.72;;;0.70;99.90;;;;;;5055555;28;20424;-78
2021/12/16 09:00:12;;;;;;;8.10;5.22;;;0.70;99.90;;;;;;5054200;28;20040;-75
2021/12/16 09:02:37;;;;;;;7.70;5.53;;;0.70;99.90;;;;;;5055325;28;20025;-75
2021/12/16 09:05:07;;;;;;;8.05;5.43;;;0.70;99.90;;;;;;5055244;28;20052;-77
2021/12/16 09:07:33;;;;;;;10.48;6.05;;;0.70;99.90;;;;;;5055588;28;20021;-77
2021/12/16 09:09:59;;;;;;;8.43;5.22;;;0.70;99.90;;;;;;5054717;28;20339;-75
2021/12/16 09:13:12;;;;;;;9.77;6.20;;;0.70;99.90;;;;;;5055420;28;20040;-76
2021/12/16 09:15:12;;;;;;;7.20;6.18;;;0.70;99.90;;;;;;5058162;28;20052;-77
2021/12/16 09:17:38;;;;;;;9.32;5.55;;;0.70;99.90;;;;;;5054687;28;20132;-76
2021/12/16 09:20:05;;;;;;;8.63;4.93;;;0.80;99.90;;;;;;5053132;28;20057;-76
2021/12/16 09:22:31;;;;;;;7.38;5.28;;;0.80;99.90;;;;;;5054908;28;20028;-77
2021/12/16 09:24:57;;;;;;;9.88;6.07;;;0.80;99.90;;;;;;5053204;28;20128;-77
2021/12/16 09:27:27;;;;;;;10.00;6.18;;;0.80;99.90;;;;;;5053282;28;20027;-77
2021/12/16 09:29:54;;;;;;;10.68;5.15;;;0.80;99.90;;;;;;5054607;28;20024;-77
2021/12/16 09:32:22;;;;;;;10.02;6.07;;;0.80;99.90;;;;;;5047254;28;20014;-77
2021/12/16 09:34:48;;;;;;;7.30;4.90;;;0.90;99.90;;;;;;5033548;28;20029;-79
2021/12/16 09:37:14;;;;;;;6.88;4.97;;;0.80;99.90;;;;;;5033332;28;20029;-77
2021/12/16 09:39:41;;;;;;;6.60;4.95;;;0.90;99.90;;;;;;5034553;28;20029;-79
2021/12/16 09:42:09;;;;;;;6.30;4.45;;;0.90;99.90;;;;;;5034565;28;20053;-78
2021/12/16 09:44:36;;;;;;;5.82;4.22;;;0.90;99.90;;;;;;5035520;28;20025;-78
2021/12/16 09:47:05;;;;;;;7.65;5.25;;;0.90;99.90;;;;;;5033742;28;20057;-79
2021/12/16 09:49:31;;;;;;;10.23;5.15;;;0.90;99.90;;;;;;5034279;28;20025;-79
2021/12/16 09:51:59;;;;;;;9.77;5.32;;;0.90;99.90;;;;;;5035596;28;20036;-78
2021/12/16 09:54:30;;;;;;;8.23;5.75;;;0.90;99.90;;;;;;5039975;28;20028;-78
2021/12/16 09:56:58;;;;;;;9.90;5.47;;;0.90;99.90;;;;;;5054290;28;20025;-79
2021/12/16 09:59:26;;;;;;;7.72;5.10;;;0.90;99.90;;;;;;5053302;28;20040;-78
2021/12/16 10:01:55;;;;;;;9.77;5.90;;;0.90;99.90;;;;;;5054098;28;20490;-79
2021/12/16 10:04:27;;;;;;;9.85;7.32;;;0.90;99.90;;;;;;5053304;28;20405;-78
2021/12/16 10:06:57;;;;;;;8.75;6.40;;;0.90;99.90;;;;;;5055194;28;20033;-79
2021/12/16 10:09:24;;;;;;;9.82;6.13;;;1.00;99.90;;;;;;5055248;28;20021;-79
2021/12/16 10:11:52;;;;;;;14.02;7.75;;;1.00;99.90;;;;;;5053576;28;20025;-80
2021/12/16 10:14:44;;;;;;;7.82;5.85;;;1.00;99.90;;;;;;5053540;28;20142;-80
2021/12/16 10:19:47;;;;;;;;;;;1.00;99.90;;;;;;5054567;28;20072;-81
2021/12/16 10:22:59;;;;;;;8.38;5.25;;;1.00;99.90;;;;;;5053775;28;19924;-81
2021/12/16 10:25:30;;;;;;;12.25;6.55;;;1.00;99.90;;;;;;5051370;28;20051;-80
2021/12/16 10:28:10;;;;;;;10.75;5.65;;;1.00;99.90;;;;;;5052441;28;20033;-80
2021/12/16 10:30:42;;;;;;;7.82;4.95;;;1.00;99.90;;;;;;5051869;28;20048;-80
2021/12/16 10:33:30;;;;;;;8.43;5.35;;;1.00;99.90;;;;;;5051941;28;20116;-81
2021/12/16 10:36:27;;;;;;;8.13;5.40;;;1.00;99.90;;;;;;5043691;28;20114;-80
2021/12/16 10:39:04;;;;;;;9.30;6.10;;;1.10;99.90;;;;;;5031259;28;20369;-80
2021/12/16 10:42:18;;;;;;;7.57;5.18;;;1.10;99.90;;;;;;5053124;28;20049;-79
2021/12/16 10:45:00;;;;;;;7.00;4.57;;;1.10;99.90;;;;;;5054312;28;20131;-80
2021/12/16 10:47:28;;;;;;;4.93;3.90;;;1.10;99.90;;;;;;5051609;28;20056;-80
2021/12/16 10:49:54;;;;;;;10.27;5.53;;;1.10;99.90;;;;;;5034631;28;20032;-81
2021/12/16 10:52:27;;;;;;;10.05;5.38;;;1.20;99.90;;;;;;5051275;28;20494;-79
2021/12/16 10:54:55;;;;;;;8.93;4.88;;;1.20;99.90;;;;;;5051026;28;20108;-80
2021/12/16 10:57:31;;;;;;;7.43;5.45;;;1.20;99.90;;;;;;5051581;28;20102;-80
2021/12/16 11:00:01;;;;;;;9.05;6.25;;;1.30;99.90;;;;;;5037851;28;20111;-79
2021/12/16 11:02:30;;;;;;;6.85;4.05;;;1.30;99.90;;;;;;5036172;28;20022;-80
2021/12/16 11:05:00;;;;;;;8.00;4.57;;;1.30;99.90;;;;;;5037729;28;20041;-80
2021/12/16 11:07:42;;;;;;;9.02;5.40;;;1.30;99.90;;;;;;5033301;28;20021;-80
2021/12/16 11:10:18;;;;;;;7.43;3.78;;;1.30;99.90;;;;;;5033263;28;20459;-80
2021/12/16 11:12:51;;;;;;;10.88;4.20;;;1.30;99.90;;;;;;5034659;28;20053;-79
2021/12/16 11:15:30;;;;;;;8.82;4.10;;;1.30;99.90;;;;;;5032997;28;20072;-79
2021/12/16 11:17:59;;;;;;;8.35;4.97;;;1.40;99.90;;;;;;5033795;28;20091;-79
2021/12/16 11:20:33;;;;;;;7.38;4.28;;;1.40;99.90;;;;;;5033696;28;20150;-79
2021/12/16 11:23:18;;;;;;;6.57;4.57;;;1.40;99.90;;;;;;5034052;28;20022;-79
2021/12/16 11:25:51;;;;;;;6.55;4.57;;;1.40;99.90;;;;;;5033665;28;20033;-80
2021/12/16 11:28:19;;;;;;;6.68;4.65;;;1.40;99.90;;;;;;5033022;28;20390;-81
2021/12/16 11:30:45;;;;;;;;;;;1.30;99.90;;;;;;5043549;28;20095;-82
2021/12/16 11:33:18;;;;;;;7.25;5.40;;;1.30;99.90;;;;;;5055291;28;19905;-82
2021/12/16 11:35:52;;;;;;;4.53;3.63;;;1.30;99.90;;;;;;5055376;28;20025;-81
2021/12/16 11:38:26;;;;;;;8.68;4.47;;;1.30;99.90;;;;;;5051143;28;20031;-83
2021/12/16 11:41:04;;;;;;;6.30;4.53;;;1.40;99.90;;;;;;5052246;28;20467;-80
2021/12/16 11:43:47;;;;;;;7.63;4.75;;;1.30;99.90;;;;;;5051164;28;20044;-79
2021/12/16 11:46:38;;;;;;;5.90;4.30;;;1.30;99.90;;;;;;5052231;28;20033;-80
2021/12/16 11:49:14;;;;;;;6.57;5.00;;;1.40;99.90;;;;;;5051887;28;20036;-81
2021/12/16 11:51:48;;;;;;;6.75;4.85;;;1.30;99.90;;;;;;5052620;28;20021;-81
2021/12/16 11:54:37;;;;;;;8.95;4.82;;;1.30;99.90;;;;;;5052247;28;20021;-81
2021/12/16 11:57:18;;;;;;;8.45;5.10;;;1.40;99.90;;;;;;5052052;28;20036;-80
2021/12/16 11:59:55;;;;;;;7.57;4.22;;;1.40;99.90;;;;;;5052341;28;20033;-83
2021/12/16 12:02:27;;;;;;;10.33;6.23;;;1.40;99.90;;;;;;5052146;28;20458;-82
2021/12/16 12:05:12;;;;;;;7.18;5.45;;;1.40;99.90;;;;;;5052654;28;20353;-80
2021/12/16 12:07:43;;;;;;;9.45;5.55;;;1.40;99.90;;;;;;5052627;28;20029;-81
2021/12/16 12:10:09;;;;;;;6.18;4.65;;;1.40;99.90;;;;;;5052549;28;20110;-81
2021/12/16 12:12:46;;;;;;;8.88;5.68;;;1.40;99.90;;;;;;5052666;28;20025;-80
2021/12/16 12:15:15;;;;;;;7.57;5.57;;;1.40;99.90;;;;;;5054172;28;20024;-80
2021/12/16 12:18:07;;;;;;;12.15;5.65;;;1.40;99.90;;;;;;5054319;28;20021;-81
2021/12/16 12:20:36;;;;;;;8.55;5.40;;;1.40;99.90;;;;;;5052893;28;20402;-80
2021/12/16 12:23:03;;;;;;;8.77;5.95;;;1.40;99.90;;;;;;5051629;28;20108;-81
2021/12/16 12:25:29;;;;;;;14.15;7.15;;;1.40;99.90;;;;;;5053096;28;20037;-81
2021/12/16 12:28:00;;;;;;;17.75;6.45;;;1.40;99.90;;;;;;5055786;28;20028;-81
2021/12/16 12:30:25;;;;;;;9.32;6.32;;;1.40;99.90;;;;;;5038301;28;20025;-80
2021/12/16 12:32:51;;;;;;;10.30;6.15;;;1.40;99.90;;;;;;5035769;28;20025;-81
2021/12/16 12:35:26;;;;;;;10.90;6.63;;;1.40;99.90;;;;;;5035881;28;20025;-80
2021/12/16 12:37:58;;;;;;;9.50;5.20;;;1.40;99.90;;;;;;5035887;28;20025;-80
2021/12/16 12:40:28;;;;;;;6.05;5.35;;;1.30;99.90;;;;;;5035948;28;20436;-80
2021/12/16 12:42:56;;;;;;;9.63;5.30;;;1.30;99.90;;;;;;5034263;28;20049;-79
2021/12/16 12:45:26;;;;;;;7.90;4.63;;;1.30;99.90;;;;;;5035693;28;20067;-79
2021/12/16 12:47:54;;;;;;;9.30;5.90;;;1.30;99.90;;;;;;5035861;28;20029;-81
2021/12/16 12:50:27;;;;;;;9.75;6.43;;;1.40;99.90;;;;;;5034123;28;20022;-79
2021/12/16 12:52:56;;;;;;;10.57;5.70;;;1.30;99.90;;;;;;5035488;28;20021;-80
2021/12/16 12:55:32;;;;;;;9.95;6.50;;;1.40;99.90;;;;;;5049662;28;20158;-80
2021/12/16 12:58:23;;;;;;;7.40;5.55;;;1.40;99.90;;;;;;5055305;28;20017;-81
2021/12/16 13:00:55;;;;;;;7.15;4.93;;;1.40;99.90;;;;;;5055032;28;20048;-79
2021/12/16 13:03:32;;;;;;;9.95;5.25;;;1.40;99.90;;;;;;5055024;28;20029;-81
2021/12/16 13:06:01;;;;;;;13.07;5.43;;;1.40;99.90;;;;;;5055693;28;20120;-80
2021/12/16 13:08:55;;;;;;;10.73;5.97;;;1.30;99.90;;;;;;5055568;28;20024;-81
2021/12/16 13:11:28;;;;;;;6.15;4.32;;;1.30;99.90;;;;;;5052164;28;20493;-78
2021/12/16 13:13:59;;;;;;;7.68;4.53;;;1.30;99.90;;;;;;5054831;28;20521;-79
2021/12/16 13:28:34;;;;;;;5.63;3.63;;;1.30;99.90;;;;;;5047457;28;20044;-79
2021/12/16 13:31:05;;;;;;;5.68;3.97;;;1.30;99.90;;;;;;5035344;28;20026;-79
2021/12/16 13:33:44;;;;;;;7.63;3.95;;;1.40;99.90;;;;;;5035550;28;20021;-79
2021/12/16 13:36:31;;;;;;;5.82;4.07;;;1.30;99.90;;;;;;5034204;28;20029;-80
2021/12/16 13:38:57;;;;;;;4.30;3.22;;;1.30;99.90;;;;;;5034809;28;20386;-78
2021/12/16 13:41:25;;;;;;;8.52;4.03;;;1.40;99.90;;;;;;5033928;28;20050;-80
2021/12/16 13:44:10;;;;;;;6.78;4.40;;;1.30;99.90;;;;;;5033892;28;20569;-79
2021/12/16 13:47:04;;;;;;;5.15;3.90;;;1.30;99.90;;;;;;5034637;28;20116;-80
2021/12/16 13:58:39;;;;;;;7.53;5.78;;;1.30;99.90;;;;;;5054828;28;20032;-79
2021/12/16 14:03:52;;;;;;;6.63;4.35;;;1.30;99.90;;;;;;5054902;28;20028;-80
2021/12/16 14:06:57;;;;;;;8.13;4.43;;;1.30;99.90;;;;;;5054896;28;20058;-78
2021/12/16 14:09:35;;;;;;;10.07;5.25;;;1.30;99.90;;;;;;5055360;28;20037;-79
2021/12/16 14:15:09;;;;;;;6.07;4.05;;;1.40;99.90;;;;;;5056631;28;20021;-78
2021/12/16 14:23:43;;;;;;;7.32;4.43;;;1.40;99.90;;;;;;5057667;28;20028;-79
2021/12/16 14:39:52;;;;;;;8.82;5.18;;;1.40;99.90;;;;;;5033909;28;20402;-78
2021/12/16 14:50:16;;;;;;;6.00;4.60;;;1.40;99.90;;;;;;5033108;28;20084;-78
2021/12/16 14:52:42;;;;;;;8.10;4.93;;;1.50;99.90;;;;;;5033392;28;20033;-80
2021/12/16 14:55:14;;;;;;;9.05;5.20;;;1.50;99.90;;;;;;5045229;28;20032;-80
2021/12/16 14:57:49;;;;;;;7.43;4.60;;;1.50;99.90;;;;;;5052907;28;20017;-79
2021/12/16 15:00:32;;;;;;;4.05;3.55;;;1.50;99.90;;;;;;5053347;28;20508;-79
2021/12/16 15:03:19;;;;;;;8.30;4.63;;;1.50;99.90;;;;;;5053484;28;20125;-80
2021/12/16 15:05:47;;;;;;;4.80;3.47;;;1.50;99.90;;;;;;5052093;28;20047;-80
2021/12/16 15:08:23;;;;;;;4.88;4.30;;;1.50;99.90;;;;;;5053482;28;20017;-79
2021/12/16 15:10:50;;;;;;;4.95;3.45;;;1.50;99.90;;;;;;5053295;28;20124;-79
2021/12/16 15:13:45;;;;;;;5.75;3.95;;;1.40;99.90;;;;;;5053359;28;20092;-79
2021/12/16 15:45:23;;;;;;;11.27;7.03;;;1.50;99.90;;;;;;5033009;28;20083;-80
2021/12/16 15:47:56;;;;;;;6.07;4.50;;;1.50;99.90;;;;;;5032722;28;20029;-79
2021/12/16 15:50:35;;;;;;;6.63;4.03;;;1.50;99.90;;;;;;5032552;28;20144;-79
2021/12/16 15:53:04;;;;;;;6.18;3.90;;;1.50;99.90;;;;;;5032735;28;20132;-79
2021/12/16 15:55:42;;;;;;;4.82;4.15;;;1.50;99.90;;;;;;5047671;28;20021;-78
2021/12/16 15:58:11;;;;;;;5.65;3.72;;;1.50;99.90;;;;;;5052705;28;20032;-79
2021/12/16 16:00:41;;;;;;;6.30;4.22;;;1.50;99.90;;;;;;5052208;28;20019;-79
2021/12/16 16:03:08;;;;;;;5.40;3.70;;;1.50;99.90;;;;;;5055756;28;20028;-79
2021/12/16 16:05:44;;;;;;;5.45;4.13;;;1.50;99.90;;;;;;5056577;28;20021;-79
2021/12/16 16:08:14;;;;;;;7.07;4.10;;;1.50;99.90;;;;;;5056505;28;20056;-79
2021/12/16 16:10:42;;;;;;;6.85;4.03;;;1.50;99.90;;;;;;5055286;28;20482;-78
2021/12/16 16:13:23;;;;;;;4.70;3.47;;;1.50;99.90;;;;;;5054787;28;20021;-79
2021/12/16 16:15:51;;;;;;;6.35;4.00;;;1.50;99.90;;;;;;5056346;28;20562;-80
2021/12/16 16:20:53;;;;;;;5.13;4.10;;;1.40;99.90;;;;;;5058075;28;20025;-80
2021/12/16 16:23:23;;;;;;;6.00;4.53;;;1.40;99.90;;;;;;5057468;28;20025;-80
2021/12/16 16:25:50;;;;;;;5.07;4.00;;;1.40;99.90;;;;;;5040961;28;20053;-79
2021/12/16 16:28:16;;;;;;;5.10;4.07;;;1.40;99.90;;;;;;5039941;28;20363;-79
2021/12/16 16:30:43;;;;;;;7.15;3.80;;;1.30;99.90;;;;;;5038201;28;20030;-80
2021/12/16 16:33:13;;;;;;;6.72;3.90;;;1.30;99.90;;;;;;5038996;28;20368;-80
2021/12/16 16:36:08;;;;;;;6.40;3.70;;;1.30;99.90;;;;;;5037148;28;20482;-79
2021/12/16 16:38:56;;;;;;;6.15;3.92;;;1.20;99.90;;;;;;5040280;28;20025;-79
2021/12/16 16:41:26;;;;;;;12.52;4.25;;;1.20;99.90;;;;;;5024380;28;20553;-80
2021/12/16 16:44:12;;;;;;;4.10;2.92;;;1.10;99.90;;;;;;5037733;28;20025;-79
2021/12/16 16:46:51;;;;;;;4.38;3.42;;;1.10;99.90;;;;;;5035706;28;20380;-80
2021/12/16 16:49:41;;;;;;;6.25;2.78;;;1.00;99.90;;;;;;5035894;28;20025;-79
2021/12/16 16:52:11;;;;;;;7.05;4.10;;;1.00;99.90;;;;;;5035553;28;20431;-79
2021/12/16 16:55:06;;;;;;;3.28;2.72;;;1.00;99.90;;;;;;5043522;28;20487;-80
2021/12/16 16:57:38;;;;;;;3.45;2.50;;;1.10;99.90;;;;;;5055436;28;20040;-78
2021/12/16 17:00:19;;;;;;;6.00;2.75;;;1.10;99.90;;;;;;5071746;28;20036;-79
2021/12/16 17:02:49;;;;;;;5.05;3.40;;;1.10;99.90;;;;;;5057743;28;20482;-80
2021/12/16 17:05:22;;;;;;;5.43;3.78;;;1.20;99.90;;;;;;5054231;28;20036;-80
2021/12/16 17:07:54;;;;;;;4.40;3.22;;;1.20;99.90;;;;;;5055560;28;20394;-79
2021/12/16 17:10:39;;;;;;;5.05;3.15;;;1.30;99.90;;;;;;5055579;28;20077;-80
2021/12/16 17:13:07;;;;;;;5.20;3.40;;;1.30;99.90;;;;;;5055101;28;20028;-80
2021/12/16 17:18:47;;;;;;;4.38;3.38;;;1.40;99.90;;;;;;5058078;28;20025;-79
2021/12/16 17:21:25;;;;;;;6.40;3.70;;;1.40;99.90;;;;;;5059193;28;20051;-80
2021/12/16 17:23:59;;;;;;;3.78;3.40;;;1.40;99.90;;;;;;5046908;28;20065;-79
2021/12/16 17:26:49;;;;;;;5.00;3.70;;;1.40;99.90;;;;;;5035505;28;20037;-79
2021/12/16 17:29:35;;;;;;;6.40;3.67;;;1.40;99.90;;;;;;5035150;28;20059;-79
2021/12/16 17:32:08;;;;;;;7.82;3.65;;;1.30;99.90;;;;;;5034999;28;20028;-79